createdAt,value
2023-03-06T00:02:50.544Z,99586.47
2023-03-06T00:05:11.957Z,99586.47
2023-03-06T00:07:49.804Z,99588.4
2023-03-06T00:10:33.133Z,99588.4
2023-03-06T00:12:14.313Z,99583.61
2023-03-06T00:12:51.126Z,99583.61
2023-03-06T00:17:50.353Z,99582.22
2023-03-06T00:22:50.692Z,99586.92
2023-03-06T00:27:50.499Z,99585.20999999999
2023-03-06T00:30:29.866Z,99585.20999999999
2023-03-06T00:32:51.531Z,99586.69
2023-03-06T00:37:49.762Z,99589.01
2023-03-06T00:42:50.115Z,99585.41
2023-03-06T00:47:49.972Z,99586.13
2023-03-06T00:51:38.349Z,99586.44
2023-03-06T00:52:49.985Z,99586.44
2023-03-06T00:57:50.148Z,99585.96
2023-03-06T01:02:50.478Z,99583.14
2023-03-06T01:07:49.800Z,99573.73999999999
2023-03-06T01:12:50.021Z,99581.05
2023-03-06T01:17:51.902Z,99575.55
2023-03-06T01:18:38.489Z,99575.55
2023-03-06T01:19:19.046Z,99575.55
2023-03-06T01:22:49.834Z,99574.84
2023-03-06T01:27:50.656Z,99576.42
2023-03-06T01:32:49.725Z,99574.58
2023-03-06T01:37:49.697Z,99572.11
2023-03-06T01:42:50.062Z,99567.67
2023-03-06T01:47:49.739Z,99563.26000000001
2023-03-06T01:52:52.123Z,99561.71
2023-03-06T01:57:54.873Z,99558.03
2023-03-06T02:02:52.859Z,99559.79999999999
2023-03-06T02:05:15.213Z,99559.79999999999
2023-03-06T02:07:50.504Z,99555.0
2023-03-06T02:08:51.773Z,99555.0
2023-03-06T02:12:51.015Z,99554.92
2023-03-06T02:17:51.151Z,99561.47
2023-03-06T02:22:56.172Z,99558.08
2023-03-06T02:24:59.052Z,99558.08
2023-03-06T02:27:49.663Z,99560.11
2023-03-06T02:32:50.237Z,99562.3
2023-03-06T02:37:50.373Z,99559.74
2023-03-06T02:42:55.278Z,99551.61
2023-03-06T02:47:50.017Z,99554.78
2023-03-06T02:52:49.872Z,99550.79
2023-03-06T02:57:49.703Z,99554.26999999999
2023-03-06T03:02:50.704Z,99553.75
2023-03-06T03:07:49.590Z,99550.26000000001
2023-03-06T03:12:49.878Z,99555.55
2023-03-06T03:16:13.017Z,99555.55
2023-03-06T03:17:49.667Z,99555.11
2023-03-06T03:22:51.837Z,99550.35
2023-03-06T03:27:50.372Z,99551.73999999999
2023-03-06T03:30:22.407Z,99551.73999999999
2023-03-06T03:32:31.953Z,99553.53
2023-03-06T03:32:49.887Z,99553.53
2023-03-06T03:37:51.648Z,99550.94
2023-03-06T03:42:49.801Z,99546.69
2023-03-06T03:47:49.637Z,99550.12000000001
2023-03-06T03:52:49.548Z,99536.23999999999
2023-03-06T03:57:49.886Z,99540.25
2023-03-06T04:02:48.557Z,99539.87
2023-03-06T04:02:49.400Z,99539.87
2023-03-06T04:04:21.570Z,99539.87
2023-03-06T04:07:49.639Z,99537.29
2023-03-06T04:09:53.301Z,99537.29
2023-03-06T04:12:49.701Z,99528.14
2023-03-06T04:17:49.640Z,99528.49
2023-03-06T04:19:14.811Z,99528.49
2023-03-06T04:22:49.924Z,99532.03
2023-03-06T04:27:49.589Z,99533.69
2023-03-06T04:32:49.725Z,99527.27
2023-03-06T04:36:32.054Z,99527.27
2023-03-06T04:37:49.507Z,99525.19
2023-03-06T04:42:49.818Z,99525.47
2023-03-06T04:47:49.797Z,99522.97
2023-03-06T04:52:49.689Z,99516.94
2023-03-06T04:57:49.497Z,99522.02
2023-03-06T05:02:50.365Z,99517.03
2023-03-06T05:07:49.633Z,99518.78
2023-03-06T05:12:49.945Z,99513.86
2023-03-06T05:17:49.728Z,99516.42
2023-03-06T05:22:50.296Z,99514.18
2023-03-06T05:27:49.485Z,99515.14
2023-03-06T05:32:50.384Z,99514.69
2023-03-06T05:37:49.740Z,99511.69
2023-03-06T05:42:49.710Z,99510.63
2023-03-06T05:47:49.872Z,99512.64
2023-03-06T05:52:49.591Z,99513.31
2023-03-06T05:57:50.134Z,99510.40000000001
2023-03-06T06:02:49.975Z,99514.37
2023-03-06T06:07:49.466Z,99523.19
2023-03-06T06:12:49.648Z,99519.95
2023-03-06T06:17:50.109Z,99521.3
2023-03-06T06:22:50.347Z,99520.0
2023-03-06T06:27:49.385Z,99520.61
2023-03-06T06:32:49.872Z,99519.48
2023-03-06T06:37:49.639Z,99513.36
2023-03-06T06:42:51.561Z,99516.8
2023-03-06T06:47:50.009Z,99513.5
2023-03-06T06:52:49.502Z,99513.23
2023-03-06T06:57:49.378Z,99512.19
2023-03-06T07:02:50.343Z,99506.76
2023-03-06T07:07:50.508Z,99505.08
2023-03-06T07:12:49.381Z,99501.03
2023-03-06T07:17:50.346Z,99489.01
2023-03-06T07:22:51.656Z,99487.94
2023-03-06T07:27:53.616Z,99483.91
2023-03-06T07:32:51.608Z,99476.19
2023-03-06T07:37:50.194Z,99475.51
2023-03-06T07:42:52.596Z,99477.55
2023-03-06T07:47:50.090Z,99479.67
2023-03-06T07:52:50.580Z,99465.73
2023-03-06T07:57:49.949Z,99463.01999999999
2023-03-06T08:02:49.783Z,99467.76999999999
2023-03-06T08:07:49.342Z,99467.85
2023-03-06T08:12:49.383Z,99471.22
2023-03-06T08:17:49.760Z,99467.53
2023-03-06T08:22:49.556Z,99477.06
2023-03-06T08:27:49.566Z,99492.64
2023-03-06T08:32:49.741Z,99497.45
2023-03-06T08:37:49.347Z,99492.94
2023-03-06T08:42:49.398Z,99492.86
2023-03-06T08:47:49.909Z,99490.0
2023-03-06T08:52:49.325Z,99490.45999999999
2023-03-06T08:57:49.485Z,99483.08
2023-03-06T09:02:49.931Z,99476.78
2023-03-06T09:07:49.428Z,99469.01000000001
2023-03-06T09:12:52.444Z,99470.48
2023-03-06T09:17:50.186Z,99468.02
2023-03-06T09:22:49.339Z,99466.38
2023-03-06T09:28:01.772Z,99465.32999999999
2023-03-06T09:32:49.566Z,99470.31
2023-03-06T09:37:49.332Z,99469.53
2023-03-06T09:42:49.585Z,99469.22
2023-03-06T09:47:55.086Z,99469.37000000001
2023-03-06T09:53:01.797Z,99463.69
2023-03-06T09:57:54.671Z,99458.77
2023-03-06T10:02:59.969Z,99453.83
2023-03-06T10:07:54.245Z,99446.66
2023-03-06T10:13:01.252Z,99447.2
2023-03-06T10:17:49.937Z,99445.17
2023-03-06T10:23:03.037Z,99443.06
2023-03-06T10:27:52.980Z,99443.42
2023-03-06T10:32:54.702Z,99441.3
2023-03-06T10:37:49.399Z,99437.2
2023-03-06T10:42:56.200Z,99438.12000000001
2023-03-06T10:47:49.890Z,99432.4
2023-03-06T10:52:58.591Z,99427.23
2023-03-06T10:57:49.283Z,99423.5
2023-03-06T11:03:04.183Z,99424.25
2023-03-06T11:07:54.699Z,99421.56999999999
2023-03-06T11:12:56.452Z,99414.94
2023-03-06T11:17:53.995Z,99407.47
2023-03-06T11:22:54.012Z,99392.64
2023-03-06T11:27:55.155Z,99386.86
2023-03-06T11:32:54.599Z,99382.47
2023-03-06T11:37:53.205Z,99373.95
2023-03-06T11:42:58.506Z,99368.66
2023-03-06T11:47:57.076Z,99366.79000000001
2023-03-06T11:52:53.469Z,99361.86
2023-03-06T11:57:57.529Z,99358.98
2023-03-06T12:03:03.363Z,99359.16
2023-03-06T12:07:57.057Z,99353.81
2023-03-06T12:13:06.765Z,99362.94
2023-03-06T12:17:58.949Z,99353.24
2023-03-06T12:22:58.059Z,99356.48
2023-03-06T12:27:55.238Z,99345.62
2023-03-06T12:32:55.008Z,99341.83
2023-03-06T12:38:02.410Z,99341.85
2023-03-06T12:43:04.861Z,99337.37999999999
2023-03-06T12:47:53.384Z,99332.61
2023-03-06T12:52:51.463Z,99329.06
2023-03-06T12:57:49.983Z,99328.61
2023-03-06T13:03:05.512Z,99320.65
2023-03-06T13:07:59.816Z,99316.74
2023-03-06T13:12:54.871Z,99309.58
2023-03-06T13:17:49.185Z,99301.05
2023-03-06T13:22:49.232Z,99300.95
2023-03-06T13:28:00.227Z,99305.33
2023-03-06T13:32:51.801Z,99300.28
2023-03-06T13:37:49.687Z,99294.8
2023-03-06T13:43:01.171Z,99287.55
2023-03-06T13:48:21.174Z,99278.22
2023-03-06T13:53:02.429Z,99282.31
2023-03-06T13:58:02.477Z,99280.22
2023-03-06T14:03:02.185Z,99282.58
2023-03-06T14:08:03.166Z,99278.2
2023-03-06T14:13:00.404Z,99273.65999999999
2023-03-06T14:17:55.491Z,99267.74
2023-03-06T14:22:49.402Z,99265.38
2023-03-06T14:27:55.003Z,99264.42
2023-03-06T14:32:51.475Z,99253.88
2023-03-06T14:37:52.245Z,99256.14
2023-03-06T14:43:08.979Z,99250.92
2023-03-06T14:47:50.666Z,99248.33
2023-03-06T14:52:54.404Z,99246.77
2023-03-06T14:57:54.987Z,99244.17
2023-03-06T15:02:50.613Z,99246.99
2023-03-06T15:07:51.952Z,99240.8
2023-03-06T15:12:49.119Z,99238.81
2023-03-06T15:17:49.244Z,99241.28
2023-03-06T15:22:49.569Z,99243.75
2023-03-06T15:27:50.881Z,99246.11
2023-03-06T15:32:49.277Z,99241.74
2023-03-06T15:37:49.678Z,99234.09
2023-03-06T15:42:49.413Z,99236.05
2023-03-06T15:47:51.266Z,99231.95
2023-03-06T15:52:49.463Z,99232.01000000001
2023-03-06T15:57:51.970Z,99234.48
2023-03-06T16:02:49.103Z,99233.62
2023-03-06T16:07:49.955Z,99235.46
2023-03-06T16:12:52.948Z,99238.73
2023-03-06T16:17:48.934Z,99243.54
2023-03-06T16:22:50.326Z,99243.93
2023-03-06T16:27:54.443Z,99241.27
2023-03-06T16:32:49.291Z,99239.70000000001
2023-03-06T16:37:49.718Z,99234.66
2023-03-06T16:42:50.027Z,99236.51999999999
2023-03-06T16:47:49.691Z,99241.18999999999
2023-03-06T16:52:50.811Z,99239.67
2023-03-06T16:57:49.305Z,99241.53
2023-03-06T17:02:50.469Z,99239.86
2023-03-06T17:07:49.481Z,99239.75
2023-03-06T17:12:49.137Z,99241.28
2023-03-06T17:17:50.619Z,99241.76999999999
2023-03-06T17:22:49.406Z,99244.83
2023-03-06T17:27:49.119Z,99245.01000000001
2023-03-06T17:32:48.879Z,99246.47
2023-03-06T17:37:49.958Z,99243.59
2023-03-06T17:42:49.778Z,99237.8
2023-03-06T17:47:52.473Z,99242.01000000001
2023-03-06T17:52:49.287Z,99244.28
2023-03-06T17:57:50.910Z,99245.92
2023-03-06T18:02:49.007Z,99250.64
2023-03-06T18:07:49.170Z,99246.97
2023-03-06T18:12:49.293Z,99237.06
2023-03-06T18:17:49.035Z,99238.01
2023-03-06T18:22:49.134Z,99234.93999999999
2023-03-06T18:27:48.813Z,99233.83
2023-03-06T18:32:50.017Z,99238.51
2023-03-06T18:37:49.020Z,99245.34
2023-03-06T18:42:50.861Z,99239.83
2023-03-06T18:47:48.849Z,99241.47
2023-03-06T18:52:49.477Z,99239.92
2023-03-06T18:57:48.810Z,99236.05
2023-03-06T19:02:49.022Z,99229.51000000001
2023-03-06T19:07:48.980Z,99230.21
2023-03-06T19:12:48.945Z,99227.98
2023-03-06T19:17:48.865Z,99226.53
2023-03-06T19:22:49.796Z,99223.94
2023-03-06T19:27:48.887Z,99223.29999999999
2023-03-06T19:32:48.887Z,99221.54000000001
2023-03-06T19:37:49.287Z,99224.8
2023-03-06T19:42:49.451Z,99223.95
2023-03-06T19:47:49.568Z,99221.89
2023-03-06T19:52:51.378Z,99217.28
2023-03-06T19:57:48.906Z,99215.91
2023-03-06T20:02:49.014Z,99216.08
2023-03-06T20:07:49.661Z,99222.33
2023-03-06T20:12:48.934Z,99219.2
2023-03-06T20:18:09.776Z,99225.0
2023-03-06T20:22:48.829Z,99218.70999999999
2023-03-06T20:27:48.821Z,99225.56
2023-03-06T20:32:49.254Z,99217.7
2023-03-06T20:37:48.817Z,99220.97
2023-03-06T20:42:48.858Z,99226.34000000001
2023-03-06T20:47:48.915Z,99219.54
2023-03-06T20:52:52.638Z,99224.56
2023-03-06T20:57:49.417Z,99220.62
2023-03-06T21:02:49.061Z,99223.73999999999
2023-03-06T21:07:48.712Z,99220.11
2023-03-06T21:12:48.973Z,99220.73000000001
2023-03-06T21:17:48.843Z,99214.73
2023-03-06T21:22:50.246Z,99217.55
2023-03-06T21:27:49.112Z,99213.99
2023-03-06T21:32:50.135Z,99211.43
2023-03-06T21:37:48.862Z,99212.8
2023-03-06T21:42:48.793Z,99207.58
2023-03-06T21:47:49.079Z,99208.7
2023-03-06T21:52:48.931Z,99203.64
2023-03-06T21:57:49.847Z,99211.99
2023-03-06T22:02:49.391Z,99212.7
2023-03-06T22:07:48.678Z,99222.34
2023-03-06T22:12:48.902Z,99219.48
2023-03-06T22:17:48.899Z,99226.2
2023-03-06T22:22:48.778Z,99225.84000000001
2023-03-06T22:27:48.723Z,99230.48999999999
2023-03-06T22:32:51.446Z,99232.17
2023-03-06T22:37:48.798Z,99236.8
2023-03-06T22:42:48.810Z,99234.83
2023-03-06T22:47:48.927Z,99235.02
2023-03-06T22:52:48.731Z,99243.45
2023-03-06T22:57:48.877Z,99250.93000000001
2023-03-06T23:02:48.853Z,99257.47
2023-03-06T23:07:48.588Z,99254.89
2023-03-06T23:12:48.759Z,99259.90000000001
2023-03-06T23:17:50.227Z,99257.03
2023-03-06T23:22:48.606Z,99261.54000000001
2023-03-06T23:27:48.661Z,99266.5
2023-03-06T23:32:48.916Z,99273.13
2023-03-06T23:37:48.631Z,99272.38
2023-03-06T23:42:48.758Z,99275.89
2023-03-06T23:47:48.635Z,99277.47
2023-03-06T23:52:50.537Z,99279.8
2023-03-06T23:57:48.705Z,99280.0
